Time;durP1;ratioP1;P1;durP2;ratioP2;P2;SDS_P1;SDS_P2;PMS_P1;PMS_P2;Temp;Humidity;BMP_temperature;BMP_pressure;BME280_temperature;BME280_humidity;BME280_pressure;Samples;Min_cycle;Max_cycle;Signal;HPM_P1;HPM_P2
2023/02/13 00:01:59;;;;;;;52.20;34.45;;;6.80;99.90;;;;;;4881988;29;20106;-80
2023/02/13 00:04:26;;;;;;;51.40;32.92;;;6.80;99.90;;;;;;4896964;29;20045;-79
2023/02/13 00:06:52;;;;;;;54.33;34.70;;;6.80;99.90;;;;;;4882211;29;20056;-79
2023/02/13 00:09:19;;;;;;;54.92;33.85;;;6.70;99.90;;;;;;4881736;29;20384;-79
2023/02/13 00:11:45;;;;;;;49.08;32.30;;;6.70;99.90;;;;;;4882220;29;20041;-78
2023/02/13 00:14:12;;;;;;;46.75;31.27;;;6.70;99.90;;;;;;4881521;29;20052;-79
2023/02/13 00:16:40;;;;;;;47.42;32.45;;;6.70;99.90;;;;;;4882051;29;20036;-78
2023/02/13 00:19:06;;;;;;;48.55;34.38;;;6.60;99.90;;;;;;4882840;29;20123;-78
2023/02/13 00:21:33;;;;;;;49.60;32.40;;;6.60;99.90;;;;;;4881145;29;20057;-78
2023/02/13 00:24:00;;;;;;;45.58;31.20;;;6.60;99.90;;;;;;4882169;29;20051;-78
2023/02/13 00:26:27;;;;;;;44.83;29.23;;;6.60;99.90;;;;;;4896689;29;20115;-78
2023/02/13 00:28:53;;;;;;;41.65;27.75;;;6.60;99.90;;;;;;4881330;29;20049;-79
2023/02/13 00:31:22;;;;;;;44.83;29.10;;;6.60;99.90;;;;;;4897116;29;20048;-80
2023/02/13 00:33:49;;;;;;;44.15;27.13;;;6.60;99.90;;;;;;4882054;29;20104;-79
2023/02/13 00:39:01;;;;;;;41.50;27.02;;;6.60;99.90;;;;;;4882208;29;20071;-79
2023/02/13 00:41:27;;;;;;;41.20;27.65;;;6.60;99.90;;;;;;4895849;29;20049;-78
2023/02/13 00:43:54;;;;;;;42.25;27.63;;;6.60;99.90;;;;;;4896882;29;20045;-78
2023/02/13 00:49:06;;;;;;;43.63;28.48;;;6.50;99.90;;;;;;4880988;29;20121;-79
2023/02/13 00:51:33;;;;;;;44.70;29.13;;;6.50;99.90;;;;;;4881698;29;20356;-79
2023/02/13 00:54:00;;;;;;;42.35;27.85;;;6.50;99.90;;;;;;4879927;29;20499;-79
2023/02/13 00:56:27;;;;;;;40.88;27.88;;;6.50;99.90;;;;;;4896174;29;20436;-79
2023/02/13 00:58:53;;;;;;;38.58;25.13;;;6.50;99.90;;;;;;4896219;29;20126;-79
2023/02/13 01:01:22;;;;;;;37.17;26.27;;;6.50;99.90;;;;;;4880894;29;20368;-79
2023/02/13 01:03:49;;;;;;;40.05;25.50;;;6.50;99.90;;;;;;4881550;29;20053;-77
2023/02/13 01:06:17;;;;;;;38.75;25.90;;;6.50;99.90;;;;;;4896046;29;20409;-79
2023/02/13 01:08:44;;;;;;;36.60;25.85;;;6.50;99.90;;;;;;4895283;29;20048;-78
2023/02/13 01:11:10;;;;;;;32.90;22.50;;;6.50;99.90;;;;;;4880567;29;20045;-79
2023/02/13 01:13:37;;;;;;;35.20;23.67;;;6.50;99.90;;;;;;4865071;29;20052;-79
2023/02/13 01:16:05;;;;;;;33.40;22.40;;;6.50;99.90;;;;;;4879432;29;20073;-79
2023/02/13 01:18:32;;;;;;;37.88;26.15;;;6.50;99.90;;;;;;4865068;29;20075;-78
2023/02/13 01:20:59;;;;;;;37.28;24.48;;;6.50;99.90;;;;;;4880538;29;20061;-79
2023/02/13 01:23:26;;;;;;;35.85;23.42;;;6.50;99.90;;;;;;4881202;29;20120;-79
2023/02/13 01:28:39;;;;;;;32.55;21.55;;;6.40;99.90;;;;;;4880353;29;20532;-79
2023/02/13 01:31:06;;;;;;;31.65;22.05;;;6.40;99.90;;;;;;4880204;29;20045;-79
2023/02/13 01:33:34;;;;;;;33.42;23.17;;;6.50;99.90;;;;;;4880224;29;20056;-78
2023/02/13 01:36:01;;;;;;;30.13;20.67;;;6.50;99.90;;;;;;4879280;29;20384;-78
2023/02/13 01:38:28;;;;;;;32.80;20.60;;;6.50;99.90;;;;;;4881970;29;20070;-78
2023/02/13 01:40:54;;;;;;;33.30;22.65;;;6.50;99.90;;;;;;4894805;29;20052;-78
2023/02/13 01:43:22;;;;;;;29.67;21.52;;;6.50;99.90;;;;;;4895549;29;20045;-79
2023/02/13 01:45:50;;;;;;;32.58;20.30;;;6.50;99.90;;;;;;4879811;29;20049;-78
2023/02/13 01:48:17;;;;;;;30.70;21.58;;;6.60;99.90;;;;;;4894740;29;20101;-78
2023/02/13 01:50:43;;;;;;;31.10;20.85;;;6.60;99.90;;;;;;4881433;29;20441;-79
2023/02/13 01:53:10;;;;;;;33.50;22.30;;;6.60;99.90;;;;;;4880533;29;20041;-78
2023/02/13 01:55:39;;;;;;;28.92;20.30;;;6.60;99.90;;;;;;4879880;29;20083;-79
2023/02/13 01:58:05;;;;;;;29.10;19.83;;;6.60;99.90;;;;;;4895580;29;20429;-78
2023/02/13 02:00:32;;;;;;;30.45;22.00;;;6.50;99.90;;;;;;4880202;29;20045;-78
2023/02/13 02:02:59;;;;;;;30.30;20.95;;;6.50;99.90;;;;;;4894551;29;20040;-78
2023/02/13 02:08:12;;;;;;;32.70;21.90;;;6.60;99.90;;;;;;4894791;29;20152;-79
2023/02/13 02:10:39;;;;;;;30.35;20.48;;;6.60;99.90;;;;;;4895342;29;20055;-78
2023/02/13 02:13:06;;;;;;;32.03;22.02;;;6.60;99.90;;;;;;4880687;29;20045;-78
2023/02/13 02:15:34;;;;;;;33.17;21.40;;;6.60;99.90;;;;;;4879078;29;20049;-78
2023/02/13 02:18:01;;;;;;;28.42;18.40;;;6.60;99.90;;;;;;4895468;29;20409;-79
2023/02/13 02:20:28;;;;;;;29.13;20.23;;;6.60;99.90;;;;;;4895294;29;20480;-79
2023/02/13 02:22:54;;;;;;;32.15;21.05;;;6.60;99.90;;;;;;4894392;29;20064;-79
2023/02/13 02:25:21;;;;;;;33.45;23.50;;;6.60;99.90;;;;;;4880419;29;20064;-78
2023/02/13 02:27:48;;;;;;;31.08;21.95;;;6.50;99.90;;;;;;4878912;29;20053;-78
2023/02/13 02:30:14;;;;;;;27.95;19.38;;;6.40;99.90;;;;;;4880657;29;20038;-79
2023/02/13 02:32:42;;;;;;;33.25;21.80;;;6.40;99.90;;;;;;4879620;29;20136;-78
2023/02/13 02:35:11;;;;;;;35.55;22.02;;;6.40;99.90;;;;;;4878532;29;20055;-79
2023/02/13 02:37:38;;;;;;;31.55;20.40;;;6.30;99.90;;;;;;4895204;29;20053;-80
2023/02/13 02:40:05;;;;;;;30.90;22.05;;;6.20;99.90;;;;;;4895068;29;20045;-78
2023/02/13 02:42:33;;;;;;;31.73;21.38;;;6.10;99.90;;;;;;4879146;29;20079;-79
2023/02/13 02:45:01;;;;;;;32.17;21.30;;;6.00;99.90;;;;;;4880419;29;20037;-78
2023/02/13 02:50:13;;;;;;;32.70;22.55;;;5.90;99.90;;;;;;4895188;29;20053;-80
2023/02/13 02:52:41;;;;;;;34.10;22.13;;;5.90;99.90;;;;;;4880101;29;20052;-79
2023/02/13 02:55:09;;;;;;;37.63;24.13;;;5.70;99.90;;;;;;4878320;29;20148;-80
2023/02/13 03:06:13;;;;;;;35.97;23.63;;;5.10;99.90;;;;;;4897947;29;20083;-78
2023/02/13 03:14:10;;;;;;;32.72;22.15;;;4.80;99.90;;;;;;4882607;29;20055;-78
2023/02/13 03:22:18;;;;;;;32.88;20.85;;;4.60;99.90;;;;;;4882594;29;20067;-80
2023/02/13 03:24:46;;;;;;;34.50;23.75;;;4.50;99.90;;;;;;4882397;29;20045;-79
2023/02/13 03:27:13;;;;;;;37.38;25.50;;;4.40;99.90;;;;;;4882284;29;20097;-78
2023/02/13 03:32:25;;;;;;;34.90;23.15;;;4.20;99.90;;;;;;4883524;29;20049;-79
2023/02/13 03:37:55;;;;;;;33.67;21.67;;;4.10;99.90;;;;;;4883702;29;20120;-77
2023/02/13 03:40:22;;;;;;;34.53;22.60;;;4.00;99.90;;;;;;4897679;29;20080;-79
2023/02/13 03:42:48;;;;;;;31.17;20.42;;;3.90;99.90;;;;;;4896890;29;20044;-79
2023/02/13 03:48:08;;;;;;;32.03;21.58;;;4.00;99.90;;;;;;4896887;29;20461;-79
2023/02/13 03:50:35;;;;;;;32.10;21.83;;;4.00;99.90;;;;;;4881366;29;20484;-79
2023/02/13 03:53:01;;;;;;;32.45;19.95;;;4.00;99.90;;;;;;4883084;29;20045;-78
2023/02/13 04:00:59;;;;;;;31.90;21.23;;;4.00;99.90;;;;;;4896464;29;20057;-79
2023/02/13 04:03:26;;;;;;;31.73;21.40;;;4.00;99.90;;;;;;4883035;29;20049;-79
2023/02/13 04:05:55;;;;;;;31.23;20.27;;;4.00;99.90;;;;;;4882488;29;20203;-79
2023/02/13 04:08:21;;;;;;;34.22;20.40;;;4.00;99.90;;;;;;4881472;29;20113;-79
2023/02/13 04:10:48;;;;;;;36.63;23.35;;;4.00;99.90;;;;;;4881965;29;20045;-79
2023/02/13 04:13:15;;;;;;;34.25;21.33;;;4.00;99.90;;;;;;4882704;29;20048;-79
2023/02/13 04:15:43;;;;;;;31.58;21.65;;;3.90;99.90;;;;;;4880712;29;20052;-79
2023/02/13 04:18:09;;;;;;;33.10;21.38;;;3.80;99.90;;;;;;4882836;29;20045;-78
2023/02/13 04:20:36;;;;;;;37.47;23.17;;;3.70;99.90;;;;;;4882017;29;20061;-79
2023/02/13 04:23:03;;;;;;;34.58;23.33;;;3.70;99.90;;;;;;4881786;29;20188;-77
2023/02/13 04:25:32;;;;;;;32.78;22.02;;;3.60;99.90;;;;;;4897127;29;20041;-77
2023/02/13 04:27:58;;;;;;;31.27;21.90;;;3.50;99.90;;;;;;4881605;29;20045;-79
2023/02/13 04:30:25;;;;;;;35.92;22.17;;;3.50;99.90;;;;;;4881988;29;20116;-79
2023/02/13 04:32:51;;;;;;;36.97;24.17;;;3.50;99.90;;;;;;4896604;29;20052;-77
2023/02/13 04:38:05;;;;;;;35.42;23.60;;;3.40;99.90;;;;;;4897368;29;20380;-79
2023/02/13 04:40:31;;;;;;;32.67;21.08;;;3.40;99.90;;;;;;4881899;29;20045;-78
2023/02/13 04:42:58;;;;;;;35.97;23.13;;;3.30;99.90;;;;;;4881433;29;20060;-78
2023/02/13 04:45:26;;;;;;;32.30;21.08;;;3.20;99.90;;;;;;4882380;29;20052;-79
2023/02/13 04:47:52;;;;;;;37.53;23.48;;;3.20;99.90;;;;;;4895692;29;20053;-78
2023/02/13 04:50:19;;;;;;;34.72;22.00;;;3.10;99.90;;;;;;4880652;29;20045;-77
2023/02/13 04:52:46;;;;;;;32.75;21.20;;;3.10;99.90;;;;;;4881765;29;20131;-78
2023/02/13 04:55:13;;;;;;;31.83;20.65;;;3.00;99.90;;;;;;4895504;29;20120;-79
2023/02/13 04:57:40;;;;;;;33.53;21.88;;;3.00;99.90;;;;;;4896254;29;20213;-79
2023/02/13 05:00:07;;;;;;;33.40;21.02;;;2.90;99.90;;;;;;4881395;29;20041;-79
2023/02/13 05:02:33;;;;;;;31.67;20.73;;;2.80;99.90;;;;;;4895462;29;20152;-78
2023/02/13 05:05:01;;;;;;;36.40;23.58;;;2.80;99.90;;;;;;4896801;29;20041;-79
2023/02/13 05:07:28;;;;;;;31.98;21.77;;;2.70;99.90;;;;;;4881011;29;20045;-79
2023/02/13 05:09:54;;;;;;;33.42;21.40;;;2.70;99.90;;;;;;4895983;29;20041;-77
2023/02/13 05:12:21;;;;;;;34.17;21.63;;;2.60;99.90;;;;;;4881491;29;20377;-78
2023/02/13 05:14:49;;;;;;;33.28;22.13;;;2.50;99.90;;;;;;4895378;29;20440;-78
2023/02/13 05:17:16;;;;;;;32.95;20.98;;;2.50;99.90;;;;;;4896022;29;20088;-79
2023/02/13 05:19:42;;;;;;;37.15;22.67;;;2.40;99.90;;;;;;4895414;29;20057;-78
2023/02/13 05:24:54;;;;;;;36.25;22.13;;;2.30;99.90;;;;;;4881699;29;20056;-78
2023/02/13 05:27:21;;;;;;;37.60;23.88;;;2.30;99.90;;;;;;4880355;29;20429;-78
2023/02/13 05:29:47;;;;;;;32.42;21.42;;;2.20;99.90;;;;;;4880962;29;20052;-78
2023/02/13 05:32:14;;;;;;;36.97;20.75;;;2.20;99.90;;;;;;4881336;29;20090;-78
2023/02/13 05:34:42;;;;;;;32.35;20.38;;;2.10;99.90;;;;;;4880236;29;20076;-79
2023/02/13 05:37:08;;;;;;;33.03;21.95;;;2.10;99.90;;;;;;4895935;29;20056;-78
2023/02/13 05:39:35;;;;;;;37.28;23.23;;;2.00;99.90;;;;;;4880837;29;20461;-79
2023/02/13 05:42:03;;;;;;;32.90;20.67;;;2.00;99.90;;;;;;4879618;29;20049;-78
2023/02/13 05:44:30;;;;;;;36.20;22.15;;;2.00;99.90;;;;;;4895689;29;20131;-79
2023/02/13 05:46:56;;;;;;;36.40;21.85;;;1.90;99.90;;;;;;4895469;29;20064;-79
2023/02/13 05:49:23;;;;;;;32.83;20.00;;;1.90;99.90;;;;;;4878819;29;20045;-79
2023/02/13 05:51:51;;;;;;;34.95;22.88;;;1.90;99.90;;;;;;4880912;29;20048;-78
2023/02/13 05:54:17;;;;;;;36.03;22.33;;;1.80;99.90;;;;;;4879162;29;20141;-78
2023/02/13 05:56:44;;;;;;;36.15;22.35;;;1.90;99.90;;;;;;4880885;29;20057;-79
2023/02/13 05:59:11;;;;;;;39.15;23.48;;;1.80;99.90;;;;;;4880765;29;20053;-78
2023/02/13 06:01:38;;;;;;;31.40;21.23;;;1.70;99.90;;;;;;4894615;29;20060;-78
2023/02/13 06:04:04;;;;;;;36.75;22.30;;;1.70;99.90;;;;;;4895694;29;20049;-79
2023/02/13 06:06:31;;;;;;;35.83;21.50;;;1.70;99.90;;;;;;4880927;29;20052;-78
2023/02/13 06:08:58;;;;;;;32.78;21.65;;;1.60;99.90;;;;;;4879916;29;20123;-79
2023/02/13 06:11:24;;;;;;;38.65;22.45;;;1.60;99.90;;;;;;4880801;29;20364;-78
2023/02/13 06:13:52;;;;;;;37.92;22.55;;;1.50;99.90;;;;;;4880954;29;20422;-79
2023/02/13 06:16:21;;;;;;;42.17;25.60;;;1.50;99.90;;;;;;4880013;29;20377;-80
2023/02/13 06:18:48;;;;;;;38.37;23.03;;;1.40;99.90;;;;;;4879625;29;20053;-77
2023/02/13 06:21:14;;;;;;;37.85;23.75;;;1.40;99.90;;;;;;4879801;29;20291;-78
2023/02/13 06:23:41;;;;;;;38.30;22.90;;;1.40;99.90;;;;;;4880151;29;20090;-79
2023/02/13 06:26:09;;;;;;;40.88;22.13;;;1.40;99.90;;;;;;4895306;29;20104;-79
2023/02/13 06:28:36;;;;;;;36.90;22.40;;;1.40;99.90;;;;;;4879656;29;20055;-79
2023/02/13 06:31:02;;;;;;;40.28;24.90;;;1.40;99.90;;;;;;4879690;29;20473;-78
2023/02/13 06:33:29;;;;;;;40.72;23.48;;;1.40;99.90;;;;;;4883223;29;20045;-78
2023/02/13 06:35:58;;;;;;;41.38;22.77;;;1.30;99.90;;;;;;4897933;29;20041;-78
2023/02/13 06:38:25;;;;;;;38.60;21.05;;;1.30;99.90;;;;;;4883956;29;20432;-78
2023/02/13 06:40:51;;;;;;;39.95;23.05;;;1.20;99.90;;;;;;4883290;29;20052;-77
2023/02/13 06:43:18;;;;;;;42.75;23.05;;;1.20;99.90;;;;;;4884307;29;20041;-77
2023/02/13 06:45:45;;;;;;;37.30;22.60;;;1.20;99.90;;;;;;4883975;29;20453;-79
2023/02/13 06:48:13;;;;;;;38.83;23.45;;;1.20;99.90;;;;;;4883211;29;20049;-79
2023/02/13 06:50:39;;;;;;;44.17;24.75;;;1.20;99.90;;;;;;4884311;29;20393;-79
2023/02/13 06:53:06;;;;;;;38.88;24.67;;;1.20;99.90;;;;;;4884519;29;20132;-78
2023/02/13 06:55:34;;;;;;;42.00;25.92;;;1.20;99.90;;;;;;4882103;29;20052;-79
2023/02/13 06:58:01;;;;;;;37.70;23.08;;;1.10;99.90;;;;;;4884033;29;20057;-78
2023/02/13 07:00:27;;;;;;;39.03;24.02;;;1.20;99.90;;;;;;4898079;29;20052;-79
2023/02/13 07:02:54;;;;;;;36.35;21.83;;;1.10;99.90;;;;;;4883015;29;20178;-78
2023/02/13 07:07:52;;;;;;;41.97;22.98;;;1.10;99.90;;;;;;4883413;29;20060;-77
2023/02/13 07:10:19;;;;;;;40.95;24.30;;;1.10;99.90;;;;;;4898087;29;20049;-79
2023/02/13 07:12:46;;;;;;;36.15;21.75;;;1.10;99.90;;;;;;4883657;29;20144;-78
2023/02/13 07:15:30;;;;;;;37.75;22.83;;;1.10;99.90;;;;;;4882666;29;20525;-78
2023/02/13 07:17:57;;;;;;;40.72;24.23;;;1.00;99.90;;;;;;4884125;29;20060;-78
2023/02/13 07:20:23;;;;;;;38.00;23.40;;;1.00;99.90;;;;;;4897604;29;20469;-79
2023/02/13 07:22:50;;;;;;;43.30;25.65;;;1.00;99.90;;;;;;4882658;29;20041;-79
2023/02/13 07:25:19;;;;;;;45.97;25.08;;;0.90;99.90;;;;;;4883429;29;20056;-78
2023/02/13 07:27:45;;;;;;;44.93;26.70;;;0.90;99.90;;;;;;4897183;29;20049;-78
2023/02/13 07:30:13;;;;;;;41.42;23.33;;;0.90;99.90;;;;;;4883144;29;20045;-77
2023/02/13 07:32:39;;;;;;;44.85;26.98;;;0.90;99.90;;;;;;4883300;29;20428;-78
2023/02/13 07:35:06;;;;;;;50.05;26.92;;;0.90;99.90;;;;;;4897294;29;20135;-80
2023/02/13 07:37:33;;;;;;;51.30;28.27;;;0.90;99.90;;;;;;4883454;29;20073;-79
2023/02/13 07:39:59;;;;;;;48.95;28.20;;;1.00;99.90;;;;;;4883228;29;20410;-79
2023/02/13 07:42:26;;;;;;;50.20;28.40;;;1.00;99.90;;;;;;4897232;29;20144;-78
2023/02/13 07:44:53;;;;;;;54.00;30.13;;;1.10;99.90;;;;;;4882158;29;20040;-78
2023/02/13 07:47:20;;;;;;;50.00;30.15;;;1.10;99.90;;;;;;4896742;29;20053;-79
2023/02/13 07:49:46;;;;;;;48.40;29.73;;;1.20;99.90;;;;;;4882592;29;20096;-81
2023/02/13 07:52:13;;;;;;;48.47;28.83;;;1.20;99.90;;;;;;4882575;29;20419;-79
2023/02/13 07:54:46;;;;;;;51.00;29.10;;;1.30;99.90;;;;;;4886794;29;20045;-79
2023/02/13 07:57:13;;;;;;;53.35;30.52;;;1.30;99.90;;;;;;4900641;29;20064;-79
2023/02/13 07:59:39;;;;;;;56.42;30.30;;;1.40;99.90;;;;;;4893712;29;20125;-80
2023/02/13 08:02:06;;;;;;;56.90;32.90;;;1.50;99.90;;;;;;4898891;29;20052;-79
2023/02/13 08:04:34;;;;;;;56.55;32.47;;;1.60;99.90;;;;;;4896729;29;20528;-78
2023/02/13 08:07:00;;;;;;;51.88;30.63;;;1.70;99.90;;;;;;4900688;29;20059;-79
2023/02/13 08:12:13;;;;;;;57.75;32.53;;;1.90;99.90;;;;;;4881298;29;20498;-80
2023/02/13 08:14:39;;;;;;;56.35;34.80;;;2.00;99.90;;;;;;4899392;29;20049;-79
2023/02/13 08:17:06;;;;;;;61.28;34.92;;;2.10;99.90;;;;;;4883768;29;20041;-79
2023/02/13 08:19:32;;;;;;;60.17;34.17;;;2.20;99.90;;;;;;4885663;29;20060;-79
2023/02/13 08:22:00;;;;;;;52.30;32.88;;;2.30;99.90;;;;;;4895765;29;20041;-79
2023/02/13 08:24:27;;;;;;;58.05;33.88;;;2.40;99.90;;;;;;4882215;29;20456;-78
2023/02/13 08:26:53;;;;;;;52.85;31.63;;;2.60;99.90;;;;;;4897483;29;20056;-78
2023/02/13 08:29:20;;;;;;;53.88;32.03;;;2.60;99.90;;;;;;4895816;29;20041;-79
2023/02/13 08:31:46;;;;;;;53.75;31.83;;;2.70;99.90;;;;;;4882134;29;20354;-78
2023/02/13 08:34:13;;;;;;;55.42;32.85;;;2.80;99.90;;;;;;4881577;29;20041;-77
2023/02/13 08:36:42;;;;;;;48.67;30.40;;;2.90;99.90;;;;;;4897909;29;20057;-77
2023/02/13 08:39:09;;;;;;;55.63;31.50;;;3.00;99.90;;;;;;4883733;29;20049;-79
2023/02/13 08:41:35;;;;;;;51.08;31.95;;;3.10;99.90;;;;;;4895512;29;20398;-78
2023/02/13 08:44:02;;;;;;;53.17;32.17;;;3.20;99.90;;;;;;4881803;29;20053;-79
2023/02/13 08:46:31;;;;;;;51.17;31.95;;;3.40;99.90;;;;;;4896395;29;20048;-79
2023/02/13 08:48:58;;;;;;;47.38;28.30;;;3.60;99.90;;;;;;4896161;29;20061;-78
2023/02/13 08:51:24;;;;;;;49.78;31.10;;;3.70;99.90;;;;;;4880737;29;20072;-78
2023/02/13 08:53:51;;;;;;;55.35;29.38;;;3.90;99.90;;;;;;4896587;29;20041;-78
2023/02/13 08:56:18;;;;;;;49.25;29.60;;;4.10;99.90;;;;;;4880446;29;20060;-78
2023/02/13 08:58:44;;;;;;;46.38;30.17;;;4.20;99.90;;;;;;4881761;29;20049;-78
2023/02/13 09:01:11;;;;;;;55.63;34.65;;;4.40;99.90;;;;;;4880462;29;20453;-77
2023/02/13 09:03:38;;;;;;;46.42;29.42;;;4.60;99.90;;;;;;4894521;29;20045;-80
2023/02/13 09:06:06;;;;;;;48.33;27.92;;;4.70;99.90;;;;;;4896309;29;20048;-78
2023/02/13 09:08:32;;;;;;;45.40;27.38;;;4.90;99.90;;;;;;4894880;29;20045;-78
2023/02/13 09:11:00;;;;;;;46.75;28.75;;;5.10;99.90;;;;;;4881438;29;20045;-78
2023/02/13 09:13:26;;;;;;;45.13;28.70;;;5.30;99.90;;;;;;4880329;29;20044;-78
2023/02/13 09:15:53;;;;;;;40.92;26.77;;;5.50;99.90;;;;;;4880520;29;20399;-78
2023/02/13 09:18:20;;;;;;;40.88;27.48;;;5.60;99.90;;;;;;4895653;29;20128;-77
2023/02/13 09:20:47;;;;;;;42.35;27.05;;;5.70;99.90;;;;;;4880287;29;20061;-80
2023/02/13 09:23:13;;;;;;;44.83;27.42;;;5.90;99.90;;;;;;4895941;29;20059;-81
2023/02/13 09:25:42;;;;;;;39.85;25.95;;;6.10;99.90;;;;;;4895771;29;20472;-80
2023/02/13 09:28:09;;;;;;;41.80;28.33;;;6.20;99.90;;;;;;4877192;29;20060;-83
2023/02/13 09:30:35;;;;;;;39.10;26.60;;;6.40;99.90;;;;;;4880573;29;20052;-79
2023/02/13 09:33:02;;;;;;;38.25;26.13;;;6.50;99.90;;;;;;4881144;29;20441;-80
2023/02/13 09:35:30;;;;;;;37.70;23.70;;;6.60;99.90;;;;;;4880393;29;20480;-78
2023/02/13 09:37:56;;;;;;;37.35;25.60;;;6.70;99.90;;;;;;4895443;29;20397;-81
2023/02/13 09:40:23;;;;;;;39.45;24.80;;;6.80;99.90;;;;;;4895286;29;20041;-83
2023/02/13 09:42:50;;;;;;;35.50;22.60;;;6.90;99.90;;;;;;4880332;29;20069;-79
2023/02/13 09:48:03;;;;;;;34.95;22.65;;;7.10;99.90;;;;;;4879837;29;20041;-78
2023/02/13 09:50:30;;;;;;;33.92;21.65;;;7.20;99.90;;;;;;4881161;29;20056;-78
2023/02/13 09:52:56;;;;;;;32.90;20.38;;;7.30;99.90;;;;;;4880867;29;20045;-80
2023/02/13 09:55:24;;;;;;;34.05;22.63;;;7.40;99.90;;;;;;4880130;29;20041;-80
2023/02/13 09:57:51;;;;;;;31.63;21.73;;;7.50;99.90;;;;;;4880618;29;20068;-77
2023/02/13 10:00:17;;;;;;;29.77;20.10;;;7.70;99.90;;;;;;4879603;29;20052;-81
2023/02/13 10:02:44;;;;;;;28.55;20.35;;;7.90;99.90;;;;;;4879522;29;20049;-77
2023/02/13 10:05:11;;;;;;;29.73;19.30;;;8.00;99.90;;;;;;4880365;29;20056;-81
2023/02/13 10:07:37;;;;;;;28.48;19.70;;;8.20;99.90;;;;;;4880929;29;20743;-81
2023/02/13 10:10:04;;;;;;;26.92;18.40;;;8.40;99.90;;;;;;4898542;29;20059;-80
2023/02/13 10:12:31;;;;;;;26.20;18.75;;;8.60;99.90;;;;;;4884147;29;20045;-81
2023/02/13 10:14:57;;;;;;;24.67;16.27;;;8.80;99.90;;;;;;4882829;29;20097;-79
2023/02/13 10:17:24;;;;;;;29.60;17.40;;;9.00;99.90;;;;;;4884179;29;20045;-80
2023/02/13 10:19:50;;;;;;;25.30;16.95;;;9.30;99.90;;;;;;4882750;29;20120;-81
2023/02/13 10:22:17;;;;;;;25.02;16.75;;;9.50;99.90;;;;;;4883367;29;20048;-80
2023/02/13 10:24:44;;;;;;;23.60;16.65;;;9.60;99.90;;;;;;4884262;29;20117;-80
2023/02/13 10:27:11;;;;;;;26.00;16.75;;;9.70;99.90;;;;;;4884208;29;20041;-79
2023/02/13 10:32:23;;;;;;;22.33;15.75;;;10.00;99.90;;;;;;4884340;29;20055;-81
2023/02/13 10:34:50;;;;;;;22.08;14.65;;;10.00;99.90;;;;;;4897583;29;20064;-81
2023/02/13 10:37:16;;;;;;;20.75;15.50;;;10.10;99.90;;;;;;4884119;29;20099;-81
2023/02/13 10:39:43;;;;;;;22.63;14.82;;;10.30;99.90;;;;;;4899351;29;20078;-80
2023/02/13 10:42:09;;;;;;;21.88;15.98;;;10.40;99.90;;;;;;4882985;29;20427;-79
2023/02/13 10:44:36;;;;;;;20.48;15.75;;;10.50;99.90;;;;;;4882740;29;20045;-80
2023/02/13 10:47:03;;;;;;;32.00;17.20;;;10.60;99.90;;;;;;4882786;29;20053;-82
2023/02/13 10:49:29;;;;;;;22.05;16.13;;;10.70;99.90;;;;;;4897010;29;20041;-83
2023/02/13 10:51:56;;;;;;;21.05;16.25;;;10.90;99.90;;;;;;4882933;29;20144;-81
2023/02/13 10:54:22;;;;;;;22.45;14.60;;;11.20;99.90;;;;;;4882995;29;20048;-82
2023/02/13 10:56:50;;;;;;;20.98;14.30;;;11.20;99.90;;;;;;4883706;29;20487;-80
2023/02/13 10:59:16;;;;;;;20.10;14.60;;;11.40;99.90;;;;;;4883234;29;20049;-82
2023/02/13 11:01:43;;;;;;;19.73;14.75;;;11.60;99.90;;;;;;4897278;29;20384;-80
2023/02/13 11:04:09;;;;;;;17.23;13.85;;;11.70;99.90;;;;;;4883718;29;20045;-78
2023/02/13 11:06:37;;;;;;;26.48;15.13;;;11.80;99.90;;;;;;4883703;29;20053;-83
2023/02/13 11:09:05;;;;;;;18.77;14.50;;;12.00;99.90;;;;;;4881754;29;20045;-82
2023/02/13 11:11:31;;;;;;;20.38;13.75;;;12.10;99.90;;;;;;4883538;29;20041;-81
2023/02/13 11:13:58;;;;;;;17.58;13.70;;;12.20;99.90;;;;;;4882979;29;20040;-80
2023/02/13 11:16:24;;;;;;;17.52;14.40;;;12.10;99.90;;;;;;4897723;29;20049;-81
2023/02/13 11:18:51;;;;;;;20.88;15.77;;;12.10;99.90;;;;;;4882673;29;20041;-79
2023/02/13 11:21:18;;;;;;;18.60;14.30;;;12.30;99.90;;;;;;4880998;29;20060;-82
2023/02/13 11:23:44;;;;;;;17.73;13.45;;;12.60;99.90;;;;;;4897671;29;20049;-80
2023/02/13 11:26:11;;;;;;;17.77;14.07;;;12.80;99.90;;;;;;4882943;29;20085;-83
2023/02/13 11:28:38;;;;;;;18.80;15.00;;;12.90;99.90;;;;;;4896176;29;20053;-80
2023/02/13 11:31:04;;;;;;;18.63;13.10;;;12.90;99.90;;;;;;4897782;29;20452;-82
2023/02/13 11:33:31;;;;;;;17.92;13.93;;;13.00;99.90;;;;;;4897661;29;20041;-80
2023/02/13 11:35:58;;;;;;;16.80;13.38;;;13.20;99.90;;;;;;4896505;29;20053;-83
2023/02/13 11:38:25;;;;;;;17.88;13.73;;;13.60;99.90;;;;;;4897197;29;20140;-82
2023/02/13 11:40:51;;;;;;;18.35;14.68;;;13.90;99.90;;;;;;4896303;29;20473;-79
2023/02/13 11:43:18;;;;;;;15.55;12.95;;;13.80;99.90;;;;;;4882888;29;20057;-79
2023/02/13 11:45:44;;;;;;;18.50;13.48;;;13.60;99.90;;;;;;4882840;29;20044;-80
2023/02/13 11:48:11;;;;;;;16.58;14.27;;;13.80;99.90;;;;;;4881423;29;20048;-81
2023/02/13 11:50:38;;;;;;;18.83;13.95;;;13.90;99.90;;;;;;4897450;29;20462;-80
2023/02/13 11:53:05;;;;;;;22.23;15.50;;;13.90;99.90;;;;;;4882740;29;20055;-80
2023/02/13 11:55:31;;;;;;;18.95;14.55;;;13.90;99.90;;;;;;4896293;29;20049;-82
2023/02/13 11:57:58;;;;;;;21.98;15.48;;;14.10;99.90;;;;;;4881270;29;20405;-78
2023/02/13 12:00:24;;;;;;;18.40;14.65;;;14.20;99.90;;;;;;4881662;29;20045;-81
2023/02/13 12:02:53;;;;;;;19.88;15.50;;;14.00;99.90;;;;;;4881550;29;20056;-82
2023/02/13 12:05:20;;;;;;;19.98;15.60;;;13.90;99.90;;;;;;4882574;29;20128;-79
2023/02/13 12:07:46;;;;;;;19.63;15.25;;;14.10;99.90;;;;;;4895639;29;20060;-82
2023/02/13 12:10:13;;;;;;;21.95;14.65;;;14.20;99.90;;;;;;4882310;29;20457;-80
2023/02/13 12:12:40;;;;;;;21.17;16.73;;;13.80;99.90;;;;;;4882356;29;20045;-82
2023/02/13 12:15:06;;;;;;;19.55;15.93;;;13.20;99.90;;;;;;4895865;29;20049;-81
2023/02/13 12:17:33;;;;;;;25.30;17.52;;;12.70;99.90;;;;;;4882292;29;20136;-78
2023/02/13 12:20:00;;;;;;;21.48;16.05;;;12.10;99.90;;;;;;4881615;29;20070;-79
2023/02/13 12:22:27;;;;;;;23.17;17.35;;;11.70;99.90;;;;;;4881124;29;20064;-79
2023/02/13 12:24:54;;;;;;;21.75;17.55;;;11.50;99.90;;;;;;4882536;29;20057;-79
2023/02/13 12:27:20;;;;;;;22.30;16.30;;;11.30;99.90;;;;;;4881206;29;20045;-79
2023/02/13 12:29:47;;;;;;;24.92;17.98;;;11.20;99.90;;;;;;4880991;29;20060;-79
2023/02/13 12:32:14;;;;;;;21.98;16.67;;;11.20;99.90;;;;;;4882386;29;20127;-77
2023/02/13 12:34:40;;;;;;;24.67;18.05;;;11.20;99.90;;;;;;4880078;29;20041;-79
2023/02/13 12:37:07;;;;;;;23.63;18.52;;;11.20;99.90;;;;;;4882014;29;20045;-78
2023/02/13 12:39:33;;;;;;;27.02;19.13;;;11.10;99.90;;;;;;4881404;29;20457;-79
2023/02/13 12:42:00;;;;;;;24.13;18.50;;;11.10;99.90;;;;;;4895400;29;20081;-80
2023/02/13 12:44:27;;;;;;;26.92;19.13;;;11.00;99.90;;;;;;4881700;29;20071;-80
2023/02/13 12:46:53;;;;;;;27.17;19.80;;;10.90;99.90;;;;;;4881739;29;20057;-81
2023/02/13 12:49:20;;;;;;;26.73;18.83;;;10.90;99.90;;;;;;4878287;29;20057;-78
2023/02/13 12:51:46;;;;;;;26.02;17.33;;;10.80;99.90;;;;;;4881429;29;20049;-78
2023/02/13 12:54:13;;;;;;;27.85;18.52;;;10.80;99.90;;;;;;4880124;29;20433;-81
2023/02/13 12:56:40;;;;;;;22.88;15.82;;;10.80;99.90;;;;;;4881494;29;20045;-80
2023/02/13 12:59:06;;;;;;;21.83;15.70;;;10.80;99.90;;;;;;4881478;29;20049;-80
2023/02/13 13:01:33;;;;;;;24.23;18.13;;;10.80;99.90;;;;;;4895259;29;20148;-81
2023/02/13 13:04:00;;;;;;;28.02;19.33;;;10.80;99.90;;;;;;4896210;29;20354;-80
2023/02/13 13:06:26;;;;;;;23.95;16.70;;;10.90;99.90;;;;;;4881413;29;20052;-80
2023/02/13 13:08:53;;;;;;;21.40;15.25;;;10.90;99.90;;;;;;4880388;29;20052;-80
2023/02/13 13:11:19;;;;;;;23.85;15.30;;;11.00;99.90;;;;;;4880071;29;20499;-79
2023/02/13 13:13:46;;;;;;;20.98;16.25;;;10.90;99.90;;;;;;4881273;29;20070;-79
2023/02/13 13:16:13;;;;;;;22.75;16.67;;;10.90;99.90;;;;;;4894764;29;20049;-78
2023/02/13 13:18:42;;;;;;;22.65;15.75;;;10.90;99.90;;;;;;4881368;29;20041;-79
2023/02/13 13:21:08;;;;;;;25.30;16.90;;;10.90;99.90;;;;;;4878635;29;20088;-78
2023/02/13 13:23:35;;;;;;;21.52;15.38;;;10.90;99.90;;;;;;4880163;29;20381;-81
2023/02/13 13:26:02;;;;;;;22.55;16.42;;;10.90;99.90;;;;;;4880191;29;20056;-79
2023/02/13 13:28:28;;;;;;;22.75;15.80;;;10.90;99.90;;;;;;4879873;29;20051;-80
2023/02/13 13:30:55;;;;;;;22.33;15.88;;;11.00;99.90;;;;;;4880629;29;20037;-80
2023/02/13 13:33:23;;;;;;;21.27;15.07;;;11.00;99.90;;;;;;4880830;29;20051;-80
2023/02/13 13:35:49;;;;;;;23.20;16.17;;;11.00;99.90;;;;;;4879969;29;20052;-78